createdAt,value
2023-01-29T00:00:28.849Z,0.00
2023-01-29T00:01:28.836Z,0.00
2023-01-29T00:02:28.836Z,0.00
2023-01-29T00:03:28.876Z,0.00
2023-01-29T00:04:28.826Z,0.00
2023-01-29T00:05:28.876Z,0.00
2023-01-29T00:06:28.794Z,0.00
2023-01-29T00:07:28.777Z,0.00
2023-01-29T00:08:28.821Z,0.00
2023-01-29T00:09:28.756Z,0.00
2023-01-29T00:10:28.753Z,0.00
2023-01-29T00:11:28.739Z,0.00
2023-01-29T00:12:28.732Z,0.00
2023-01-29T00:13:28.809Z,0.00
2023-01-29T00:14:28.712Z,0.00
2023-01-29T00:15:28.702Z,0.00
2023-01-29T00:16:28.707Z,0.00
2023-01-29T00:17:28.677Z,0.00
2023-01-29T00:18:28.709Z,0.00
2023-01-29T00:19:28.665Z,0.00
2023-01-29T00:20:28.656Z,0.00
2023-01-29T00:21:28.641Z,0.00
2023-01-29T00:22:28.633Z,0.00
2023-01-29T00:23:28.647Z,0.00
2023-01-29T00:24:28.725Z,0.00
2023-01-29T00:25:28.608Z,0.00
2023-01-29T00:26:28.595Z,0.00
2023-01-29T00:27:28.581Z,0.00
2023-01-29T00:28:28.629Z,0.00
2023-01-29T00:29:28.574Z,0.00
2023-01-29T00:30:28.559Z,0.00
2023-01-29T00:31:28.723Z,0.00
2023-01-29T00:32:28.534Z,0.00
2023-01-29T00:33:28.527Z,0.00
2023-01-29T00:34:28.516Z,0.00
2023-01-29T00:35:28.497Z,0.00
2023-01-29T00:36:28.491Z,0.00
2023-01-29T00:37:28.487Z,0.00
2023-01-29T00:38:28.477Z,0.00
2023-01-29T00:39:42.516Z,0.00
2023-01-29T00:40:28.466Z,0.00
2023-01-29T00:41:28.447Z,0.00
2023-01-29T00:42:28.434Z,0.00
2023-01-29T00:43:28.434Z,0.00
2023-01-29T00:44:28.420Z,0.00
2023-01-29T00:45:28.402Z,0.00
2023-01-29T00:46:28.435Z,0.00
2023-01-29T00:47:28.381Z,0.00
2023-01-29T00:48:28.372Z,0.00
2023-01-29T00:49:28.380Z,0.00
2023-01-29T00:50:28.352Z,0.00
2023-01-29T00:51:28.342Z,0.00
2023-01-29T00:52:28.341Z,0.00
2023-01-29T00:53:28.319Z,0.00
2023-01-29T00:54:28.322Z,0.00
2023-01-29T00:55:28.307Z,0.00
2023-01-29T00:56:28.295Z,0.00
2023-01-29T00:57:28.287Z,0.00
2023-01-29T00:58:28.283Z,0.00
2023-01-29T00:59:28.282Z,0.00
2023-01-29T01:00:28.255Z,0.00
2023-01-29T01:01:28.246Z,0.00
2023-01-29T01:02:28.240Z,0.00
2023-01-29T01:03:28.220Z,0.00
2023-01-29T01:04:28.220Z,0.00
2023-01-29T01:05:28.207Z,0.00
2023-01-29T01:06:28.198Z,0.00
2023-01-29T01:07:28.185Z,0.00
2023-01-29T01:08:28.177Z,0.00
2023-01-29T01:09:28.435Z,0.00
2023-01-29T01:10:28.156Z,0.00
2023-01-29T01:11:28.148Z,0.00
2023-01-29T01:12:28.148Z,0.00
2023-01-29T01:13:28.128Z,0.00
2023-01-29T01:14:28.131Z,0.00
2023-01-29T01:15:28.108Z,0.00
2023-01-29T01:16:28.131Z,0.00
2023-01-29T01:17:28.093Z,0.00
2023-01-29T01:18:28.094Z,0.00
2023-01-29T01:19:28.070Z,0.00
2023-01-29T01:20:28.057Z,0.00
2023-01-29T01:21:28.046Z,0.00
2023-01-29T01:22:28.037Z,0.00
2023-01-29T01:23:28.028Z,0.00
2023-01-29T01:24:28.035Z,0.00
2023-01-29T01:25:27.999Z,0.00
2023-01-29T01:26:28.114Z,0.00
2023-01-29T01:27:27.984Z,0.00
2023-01-29T01:28:27.975Z,0.00
2023-01-29T01:29:27.970Z,0.00
2023-01-29T01:30:27.972Z,0.00
2023-01-29T01:31:28.081Z,0.00
2023-01-29T01:32:27.945Z,0.00
2023-01-29T01:33:27.924Z,0.00
2023-01-29T01:34:27.924Z,0.00
2023-01-29T01:35:27.904Z,0.00
2023-01-29T01:36:27.899Z,0.00
2023-01-29T01:37:27.890Z,0.00
2023-01-29T01:38:27.883Z,0.00
2023-01-29T01:39:27.882Z,0.00
2023-01-29T01:40:27.853Z,0.00
2023-01-29T01:41:27.852Z,0.00
2023-01-29T01:42:27.835Z,0.00
2023-01-29T01:43:27.827Z,0.00
2023-01-29T01:44:27.820Z,0.00
2023-01-29T01:45:27.853Z,0.00
2023-01-29T01:46:27.799Z,0.00
2023-01-29T01:47:27.782Z,0.00
2023-01-29T01:48:27.774Z,0.00
2023-01-29T01:49:27.792Z,0.00
2023-01-29T01:50:27.757Z,0.00
2023-01-29T01:51:27.750Z,0.00
2023-01-29T01:52:27.750Z,0.00
2023-01-29T01:53:27.729Z,0.00
2023-01-29T01:54:27.728Z,0.00
2023-01-29T01:55:27.698Z,0.00
2023-01-29T01:56:27.693Z,0.00
2023-01-29T01:57:27.679Z,0.00
2023-01-29T01:58:27.676Z,0.00
2023-01-29T01:59:27.673Z,0.00
2023-01-29T02:00:27.655Z,0.00
2023-01-29T02:01:27.725Z,0.00
2023-01-29T02:02:27.672Z,0.00
2023-01-29T02:03:27.624Z,0.00
2023-01-29T02:04:27.644Z,0.00
2023-01-29T02:05:27.625Z,0.00
2023-01-29T02:06:27.608Z,0.00
2023-01-29T02:07:27.581Z,0.00
2023-01-29T02:08:27.583Z,0.00
2023-01-29T02:09:27.590Z,0.00
2023-01-29T02:10:27.555Z,0.00
2023-01-29T02:11:27.558Z,0.00
2023-01-29T02:12:27.538Z,0.00
2023-01-29T02:13:27.520Z,0.00
2023-01-29T02:14:27.534Z,0.00
2023-01-29T02:15:27.515Z,0.00
2023-01-29T02:16:27.511Z,0.00
2023-01-29T02:17:27.535Z,0.00
2023-01-29T02:18:27.476Z,0.00
2023-01-29T02:19:27.465Z,0.00
2023-01-29T02:20:27.459Z,0.00
2023-01-29T02:21:27.438Z,0.00
2023-01-29T02:22:27.437Z,0.00
2023-01-29T02:23:27.432Z,0.00
2023-01-29T02:24:27.444Z,0.00
2023-01-29T02:25:27.407Z,0.00
2023-01-29T02:26:27.393Z,0.00
2023-01-29T02:27:27.379Z,0.00
2023-01-29T02:28:27.383Z,0.00
2023-01-29T02:29:27.369Z,0.00
2023-01-29T02:30:27.366Z,0.00
2023-01-29T02:31:27.355Z,0.00
2023-01-29T02:32:27.339Z,0.00
2023-01-29T02:33:27.326Z,0.00
2023-01-29T02:34:27.331Z,0.00
2023-01-29T02:35:27.302Z,0.00
2023-01-29T02:36:27.286Z,0.00
2023-01-29T02:37:27.286Z,0.00
2023-01-29T02:38:27.284Z,0.00
2023-01-29T02:39:27.278Z,0.00
2023-01-29T02:40:27.262Z,0.00
2023-01-29T02:41:27.255Z,0.00
2023-01-29T02:42:27.243Z,0.00
2023-01-29T02:43:27.224Z,0.00
2023-01-29T02:44:27.228Z,0.00
2023-01-29T02:45:27.213Z,0.00
2023-01-29T02:46:27.187Z,0.00
2023-01-29T02:47:27.394Z,0.00
2023-01-29T02:48:27.167Z,0.00
2023-01-29T02:49:27.164Z,0.00
2023-01-29T02:50:27.149Z,0.00
2023-01-29T02:51:27.167Z,0.00
2023-01-29T02:52:27.150Z,0.00
2023-01-29T02:53:27.139Z,0.00
2023-01-29T02:54:27.122Z,0.00
2023-01-29T02:55:27.115Z,0.00
2023-01-29T02:56:27.092Z,0.00
2023-01-29T02:57:27.095Z,0.00
2023-01-29T02:58:27.478Z,0.00
2023-01-29T02:59:27.078Z,0.00
2023-01-29T03:00:27.048Z,0.00
2023-01-29T03:01:27.062Z,0.00
2023-01-29T03:02:27.086Z,0.00
2023-01-29T03:03:27.025Z,0.00
2023-01-29T03:04:27.112Z,0.00
2023-01-29T03:05:27.003Z,0.00
2023-01-29T03:06:27.002Z,0.00
2023-01-29T03:07:26.988Z,0.00
2023-01-29T03:08:26.974Z,0.00
2023-01-29T03:09:26.979Z,0.00
2023-01-29T03:10:26.948Z,0.00
2023-01-29T03:11:26.943Z,0.00
2023-01-29T03:12:26.933Z,0.00
2023-01-29T03:13:26.936Z,0.00
2023-01-29T03:14:26.928Z,0.00
2023-01-29T03:15:26.903Z,0.00
2023-01-29T03:16:26.937Z,0.00
2023-01-29T03:17:26.891Z,0.00
2023-01-29T03:18:26.870Z,0.00
2023-01-29T03:19:26.876Z,0.00
2023-01-29T03:20:26.851Z,0.00
2023-01-29T03:21:26.843Z,0.00
2023-01-29T03:22:26.829Z,0.00
2023-01-29T03:23:26.840Z,0.00
2023-01-29T03:24:26.897Z,0.00
2023-01-29T03:25:26.812Z,0.00
2023-01-29T03:26:26.792Z,0.00
2023-01-29T03:27:26.788Z,0.00
2023-01-29T03:28:26.770Z,0.00
2023-01-29T03:29:26.776Z,0.00
2023-01-29T03:30:26.773Z,0.00
2023-01-29T03:31:26.902Z,0.00
2023-01-29T03:32:26.747Z,0.00
2023-01-29T03:33:26.728Z,0.00
2023-01-29T03:34:26.719Z,0.00
2023-01-29T03:35:26.718Z,0.00
2023-01-29T03:36:26.693Z,0.00
2023-01-29T03:37:26.693Z,0.00
2023-01-29T03:38:26.717Z,0.00
2023-01-29T03:39:26.682Z,0.00
2023-01-29T03:40:26.648Z,0.00
2023-01-29T03:41:26.642Z,0.00
2023-01-29T03:42:26.647Z,0.00
2023-01-29T03:43:26.637Z,0.00
2023-01-29T03:44:26.617Z,0.00
2023-01-29T03:45:26.607Z,0.00
2023-01-29T03:46:26.589Z,0.00
2023-01-29T03:47:26.584Z,0.00
2023-01-29T03:48:26.573Z,0.00
2023-01-29T03:49:26.563Z,0.00
2023-01-29T03:50:26.552Z,0.00
2023-01-29T03:51:26.562Z,0.00
2023-01-29T03:52:26.532Z,0.00
2023-01-29T03:53:26.528Z,0.00
2023-01-29T03:54:26.546Z,0.00
2023-01-29T03:55:26.531Z,0.00
2023-01-29T03:56:26.486Z,0.00
2023-01-29T03:57:26.487Z,0.00
2023-01-29T03:58:26.476Z,0.00
2023-01-29T03:59:26.468Z,0.00
2023-01-29T04:00:26.471Z,0.00
2023-01-29T04:01:26.501Z,0.00
2023-01-29T04:02:26.434Z,0.00
2023-01-29T04:03:26.424Z,0.00
2023-01-29T04:04:26.456Z,0.00
2023-01-29T04:05:26.411Z,0.00
2023-01-29T04:06:26.397Z,0.00
2023-01-29T04:07:26.397Z,0.00
2023-01-29T04:08:26.381Z,0.00
2023-01-29T04:09:26.368Z,0.00
2023-01-29T04:10:26.499Z,0.00
2023-01-29T04:11:26.344Z,0.00
2023-01-29T04:12:26.343Z,0.00
2023-01-29T04:13:26.327Z,0.00
2023-01-29T04:14:26.312Z,0.00
2023-01-29T04:15:26.336Z,0.00
2023-01-29T04:16:26.328Z,0.00
2023-01-29T04:17:26.289Z,0.00
2023-01-29T04:18:26.278Z,0.00
2023-01-29T04:19:26.276Z,0.00
2023-01-29T04:20:26.275Z,0.00
2023-01-29T04:21:26.244Z,0.00
2023-01-29T04:22:26.239Z,0.00
2023-01-29T04:23:26.229Z,0.00
2023-01-29T04:24:26.247Z,0.00
2023-01-29T04:25:26.211Z,0.00
2023-01-29T04:26:26.188Z,0.00
2023-01-29T04:27:26.195Z,0.00
2023-01-29T04:28:26.167Z,0.00
2023-01-29T04:29:27.845Z,0.00
2023-01-29T04:30:26.185Z,0.00
2023-01-29T04:31:26.227Z,0.00
2023-01-29T04:32:26.137Z,0.00
2023-01-29T04:33:26.138Z,0.00
2023-01-29T04:34:26.113Z,0.00
2023-01-29T04:35:26.108Z,0.00
2023-01-29T04:36:26.096Z,0.00
2023-01-29T04:37:26.091Z,0.00
2023-01-29T04:38:26.070Z,0.00
2023-01-29T04:39:26.068Z,0.00
2023-01-29T04:40:26.055Z,0.00
2023-01-29T04:41:26.055Z,0.00
2023-01-29T04:42:26.047Z,0.00
2023-01-29T04:43:26.025Z,0.00
2023-01-29T04:44:26.018Z,0.00
2023-01-29T04:45:26.011Z,0.00
2023-01-29T04:46:26.008Z,0.00
2023-01-29T04:47:26.006Z,0.00
2023-01-29T04:48:26.036Z,0.00
2023-01-29T04:49:25.967Z,0.00
2023-01-29T04:50:25.969Z,0.00
2023-01-29T04:51:26.142Z,0.00
2023-01-29T04:52:25.936Z,0.00
2023-01-29T04:53:25.935Z,0.00
2023-01-29T04:54:25.921Z,0.00
2023-01-29T04:55:25.910Z,0.00
2023-01-29T04:56:25.896Z,0.00
2023-01-29T04:57:25.891Z,0.00
2023-01-29T04:58:25.871Z,0.00
2023-01-29T04:59:25.875Z,0.00
2023-01-29T05:00:25.865Z,0.00
2023-01-29T05:01:25.897Z,0.00
2023-01-29T05:02:25.868Z,0.00
2023-01-29T05:03:25.833Z,0.00
2023-01-29T05:04:25.813Z,0.00
2023-01-29T05:05:25.808Z,0.00
2023-01-29T05:06:25.795Z,0.00
2023-01-29T05:07:25.798Z,0.00
2023-01-29T05:08:25.791Z,0.00
2023-01-29T05:09:25.769Z,0.00
2023-01-29T05:10:25.764Z,0.00
2023-01-29T05:11:25.754Z,0.00
2023-01-29T05:12:25.739Z,0.00
2023-01-29T05:13:25.729Z,0.00
2023-01-29T05:14:25.712Z,0.00
2023-01-29T05:15:25.731Z,0.00
2023-01-29T05:16:25.747Z,0.00
2023-01-29T05:17:25.689Z,0.00
2023-01-29T05:18:25.681Z,0.00
2023-01-29T05:19:25.667Z,0.00
2023-01-29T05:20:25.674Z,0.00
2023-01-29T05:21:25.650Z,0.00
2023-01-29T05:22:25.634Z,0.00
2023-01-29T05:23:25.633Z,0.00
2023-01-29T05:24:25.705Z,0.00
2023-01-29T05:25:25.692Z,0.00
2023-01-29T05:26:25.597Z,0.00
2023-01-29T05:27:25.590Z,0.00
2023-01-29T05:28:25.576Z,0.00
2023-01-29T05:29:25.567Z,0.00
2023-01-29T05:30:25.577Z,0.00
2023-01-29T05:31:25.595Z,0.00
2023-01-29T05:32:25.541Z,0.00
2023-01-29T05:33:25.528Z,0.00
2023-01-29T05:34:25.520Z,0.00
2023-01-29T05:35:25.532Z,0.00
2023-01-29T05:36:25.494Z,0.00
2023-01-29T05:37:25.491Z,0.00
2023-01-29T05:38:25.484Z,0.00
2023-01-29T05:39:25.468Z,0.00
2023-01-29T05:40:25.490Z,0.00
2023-01-29T05:41:25.453Z,0.00
2023-01-29T05:42:25.442Z,0.00
2023-01-29T05:43:25.427Z,0.00
2023-01-29T05:44:25.433Z,0.00
2023-01-29T05:45:25.442Z,0.00
2023-01-29T05:46:25.517Z,0.00
2023-01-29T05:47:25.426Z,0.00
2023-01-29T05:48:25.374Z,0.00
2023-01-29T05:49:25.369Z,0.00
2023-01-29T05:50:25.580Z,0.00
2023-01-29T05:51:25.353Z,0.00
2023-01-29T05:52:25.351Z,0.00
2023-01-29T05:53:25.328Z,0.00
2023-01-29T05:54:25.320Z,0.00
2023-01-29T05:55:25.344Z,0.00
2023-01-29T05:56:25.317Z,0.00
2023-01-29T05:57:25.287Z,0.00
2023-01-29T05:58:25.274Z,0.00
2023-01-29T05:59:25.294Z,0.00
2023-01-29T06:00:25.275Z,0.00
2023-01-29T06:01:25.253Z,0.00
2023-01-29T06:02:25.240Z,0.00
2023-01-29T06:03:25.233Z,0.00
2023-01-29T06:04:25.219Z,0.00
2023-01-29T06:05:25.312Z,0.00
2023-01-29T06:06:25.196Z,0.00
2023-01-29T06:07:25.191Z,0.00
2023-01-29T06:08:25.186Z,0.00
2023-01-29T06:09:25.168Z,0.00
2023-01-29T06:10:25.157Z,0.00
2023-01-29T06:11:25.156Z,0.00
2023-01-29T06:12:25.138Z,0.00
2023-01-29T06:13:25.140Z,0.00
2023-01-29T06:14:25.120Z,0.00
2023-01-29T06:15:25.132Z,0.00
2023-01-29T06:16:25.188Z,0.00
2023-01-29T06:17:25.097Z,0.00
2023-01-29T06:18:25.085Z,0.00
2023-01-29T06:19:25.071Z,0.00
2023-01-29T06:20:25.127Z,0.00
2023-01-29T06:21:25.060Z,0.00
2023-01-29T06:22:25.045Z,0.00
2023-01-29T06:23:25.032Z,0.00
2023-01-29T06:24:25.076Z,0.00
2023-01-29T06:25:25.052Z,0.00
2023-01-29T06:26:25.005Z,0.00
2023-01-29T06:27:24.991Z,0.00
2023-01-29T06:28:24.921Z,0.00
2023-01-29T06:29:24.969Z,0.00
2023-01-29T06:30:24.971Z,0.00
2023-01-29T06:31:37.954Z,0.00
2023-01-29T06:32:24.939Z,0.00
2023-01-29T06:33:24.876Z,0.00
2023-01-29T06:34:24.863Z,0.00
2023-01-29T06:35:24.872Z,0.00
2023-01-29T06:36:24.856Z,0.00
2023-01-29T06:37:24.834Z,0.00
2023-01-29T06:38:24.836Z,0.00
2023-01-29T06:39:24.884Z,0.00
2023-01-29T06:40:24.817Z,0.00
2023-01-29T06:41:24.805Z,0.00
2023-01-29T06:42:24.787Z,0.00
2023-01-29T06:43:24.819Z,0.00
2023-01-29T06:44:24.767Z,0.00
2023-01-29T06:45:24.817Z,0.00
2023-01-29T06:46:24.754Z,0.00
2023-01-29T06:47:24.924Z,0.00
2023-01-29T06:48:24.727Z,0.00
2023-01-29T06:49:24.719Z,0.00
2023-01-29T06:50:24.710Z,0.00
2023-01-29T06:51:24.704Z,0.00
2023-01-29T06:52:24.689Z,0.00
2023-01-29T06:53:24.679Z,0.00
2023-01-29T06:54:24.684Z,0.00
2023-01-29T06:55:24.656Z,0.00
2023-01-29T06:56:24.663Z,0.00
2023-01-29T06:57:24.633Z,0.00
2023-01-29T06:58:24.650Z,0.00
2023-01-29T06:59:24.618Z,0.00
2023-01-29T07:00:24.616Z,0.00
2023-01-29T07:01:35.645Z,0.00
2023-01-29T07:02:24.646Z,0.00
2023-01-29T07:03:24.576Z,0.00
2023-01-29T07:04:24.569Z,0.00
2023-01-29T07:05:24.564Z,0.00
2023-01-29T07:06:24.550Z,0.00
2023-01-29T07:07:24.539Z,0.00
2023-01-29T07:08:24.539Z,0.00
2023-01-29T07:09:24.531Z,0.00
2023-01-29T07:10:24.513Z,0.00
2023-01-29T07:11:24.497Z,0.00
2023-01-29T07:12:24.505Z,0.00
2023-01-29T07:13:24.476Z,0.00
2023-01-29T07:14:24.472Z,0.00
2023-01-29T07:15:24.455Z,0.00
2023-01-29T07:16:24.459Z,5.62
2023-01-29T07:17:24.444Z,5.62
2023-01-29T07:18:24.438Z,5.62
2023-01-29T07:19:24.417Z,5.62
2023-01-29T07:20:24.417Z,5.62
2023-01-29T07:21:24.408Z,5.62
2023-01-29T07:22:24.402Z,5.62
2023-01-29T07:23:24.380Z,5.62
2023-01-29T07:24:24.402Z,5.62
2023-01-29T07:25:24.355Z,11.25
2023-01-29T07:26:24.368Z,11.25
2023-01-29T07:27:24.334Z,11.25
2023-01-29T07:28:24.327Z,11.25
2023-01-29T07:29:24.319Z,11.25
2023-01-29T07:30:24.322Z,11.25
2023-01-29T07:31:24.507Z,11.25
2023-01-29T07:32:24.372Z,11.25
2023-01-29T07:33:24.279Z,11.25
2023-01-29T07:34:24.383Z,11.25
2023-01-29T07:35:24.258Z,11.25
2023-01-29T07:36:24.263Z,11.25
2023-01-29T07:37:24.239Z,11.25
2023-01-29T07:38:24.235Z,11.25
2023-01-29T07:39:24.228Z,16.88
2023-01-29T07:40:24.208Z,16.88
2023-01-29T07:41:24.202Z,16.88
2023-01-29T07:42:24.199Z,16.88
2023-01-29T07:43:24.184Z,16.88
2023-01-29T07:44:24.200Z,16.88
2023-01-29T07:45:24.157Z,16.88
2023-01-29T07:46:24.161Z,16.88
2023-01-29T07:47:24.135Z,16.88
2023-01-29T07:48:24.131Z,16.88
2023-01-29T07:49:24.160Z,16.88
2023-01-29T07:50:24.106Z,16.88
2023-01-29T07:51:24.124Z,16.88
2023-01-29T07:52:24.086Z,16.88
2023-01-29T07:53:24.080Z,22.50
2023-01-29T07:54:24.085Z,22.50
2023-01-29T07:55:24.066Z,22.50
2023-01-29T07:56:24.054Z,22.50
2023-01-29T07:57:24.036Z,22.50
2023-01-29T07:58:24.037Z,22.50
2023-01-29T07:59:24.011Z,22.50
2023-01-29T08:00:24.018Z,22.50
2023-01-29T08:01:24.060Z,22.50
2023-01-29T08:02:24.044Z,22.50
2023-01-29T08:03:23.978Z,22.50
2023-01-29T08:04:23.971Z,22.50
2023-01-29T08:05:23.961Z,16.88
2023-01-29T08:06:23.970Z,16.88
2023-01-29T08:07:23.941Z,16.88
2023-01-29T08:08:23.945Z,16.88
2023-01-29T08:09:23.918Z,11.25
2023-01-29T08:10:23.905Z,11.25
2023-01-29T08:11:23.906Z,11.25
2023-01-29T08:12:23.896Z,11.25
2023-01-29T08:13:23.888Z,11.25
2023-01-29T08:14:23.872Z,11.25
2023-01-29T08:15:23.861Z,11.25
2023-01-29T08:16:23.886Z,11.25
2023-01-29T08:17:23.837Z,11.25
2023-01-29T08:18:23.829Z,11.25
2023-01-29T08:19:24.047Z,11.25
2023-01-29T08:20:23.811Z,11.25
2023-01-29T08:21:23.886Z,11.25
2023-01-29T08:22:23.788Z,11.25
2023-01-29T08:23:23.773Z,11.25
2023-01-29T08:24:28.258Z,11.25
2023-01-29T08:25:24.115Z,16.88
2023-01-29T08:26:23.764Z,16.88
2023-01-29T08:27:23.737Z,16.88
2023-01-29T08:28:23.728Z,16.88
2023-01-29T08:29:23.714Z,16.88
2023-01-29T08:30:23.708Z,16.88
2023-01-29T08:31:23.724Z,16.88
2023-01-29T08:32:23.688Z,22.50
2023-01-29T08:33:37.903Z,22.50
2023-01-29T08:34:23.675Z,16.88
2023-01-29T08:35:23.655Z,22.50
2023-01-29T08:36:23.667Z,22.50
2023-01-29T08:37:23.637Z,22.50
2023-01-29T08:38:23.631Z,22.50
2023-01-29T08:39:23.617Z,22.50
2023-01-29T08:40:23.642Z,28.12
2023-01-29T08:41:23.615Z,28.12
2023-01-29T08:42:23.596Z,28.12
2023-01-29T08:43:23.569Z,33.75
2023-01-29T08:44:23.570Z,33.75
2023-01-29T08:45:23.558Z,33.75
2023-01-29T08:46:23.565Z,39.38
2023-01-29T08:47:23.534Z,39.38
2023-01-29T08:48:23.528Z,39.38
2023-01-29T08:49:23.534Z,39.38
2023-01-29T08:50:23.509Z,39.38
2023-01-29T08:51:23.510Z,45.00
2023-01-29T08:52:23.494Z,39.38
2023-01-29T08:53:23.471Z,39.38
2023-01-29T08:54:23.466Z,39.38
2023-01-29T08:55:23.454Z,39.38
2023-01-29T08:56:23.458Z,39.38
2023-01-29T08:57:23.431Z,39.38
2023-01-29T08:58:23.432Z,39.38
2023-01-29T08:59:23.411Z,39.38
2023-01-29T09:00:23.409Z,39.38
2023-01-29T09:01:23.748Z,39.38
2023-01-29T09:02:23.451Z,45.00
2023-01-29T09:03:23.382Z,45.00
2023-01-29T09:04:23.397Z,45.00
2023-01-29T09:05:23.369Z,45.00
2023-01-29T09:06:23.359Z,39.38
2023-01-29T09:07:23.345Z,39.38
2023-01-29T09:08:23.337Z,45.00
2023-01-29T09:09:23.366Z,45.00
2023-01-29T09:10:23.309Z,45.00
2023-01-29T09:11:23.307Z,50.62
2023-01-29T09:12:23.288Z,50.62
2023-01-29T09:13:23.270Z,50.62
2023-01-29T09:14:23.279Z,56.25
2023-01-29T09:15:23.263Z,56.25
2023-01-29T09:16:23.289Z,61.88
2023-01-29T09:17:23.243Z,61.88
2023-01-29T09:18:23.229Z,61.88
2023-01-29T09:19:23.253Z,67.50
2023-01-29T09:20:23.238Z,67.50
2023-01-29T09:21:23.210Z,67.50
2023-01-29T09:22:23.192Z,61.88
2023-01-29T09:23:23.207Z,61.88
2023-01-29T09:24:23.180Z,61.88
2023-01-29T09:25:23.162Z,61.88
2023-01-29T09:26:23.183Z,61.88
2023-01-29T09:27:23.139Z,61.88
2023-01-29T09:28:23.136Z,61.88
2023-01-29T09:29:23.110Z,61.88
2023-01-29T09:30:23.164Z,61.88
2023-01-29T09:31:23.259Z,61.88
2023-01-29T09:32:49.808Z,61.88
2023-01-29T09:33:23.084Z,61.88
2023-01-29T09:34:23.061Z,61.88
2023-01-29T09:35:23.079Z,61.88
2023-01-29T09:36:23.161Z,61.88
2023-01-29T09:37:23.049Z,61.88
2023-01-29T09:38:23.097Z,61.88
2023-01-29T09:39:23.012Z,61.88
2023-01-29T09:40:23.032Z,67.50
2023-01-29T09:41:22.997Z,67.50
2023-01-29T09:42:23.000Z,67.50
2023-01-29T09:43:22.991Z,61.88
2023-01-29T09:44:22.964Z,61.88
2023-01-29T09:45:22.956Z,61.88
2023-01-29T09:46:23.043Z,61.88
2023-01-29T09:47:22.937Z,61.88
2023-01-29T09:48:22.927Z,61.88
2023-01-29T09:49:22.910Z,61.88
2023-01-29T09:50:23.009Z,61.88
2023-01-29T09:51:22.912Z,61.88
2023-01-29T09:52:22.885Z,61.88
2023-01-29T09:53:22.874Z,61.88
2023-01-29T09:54:22.868Z,61.88
2023-01-29T09:55:22.850Z,61.88
2023-01-29T09:56:22.853Z,61.88
2023-01-29T09:57:22.839Z,61.88
2023-01-29T09:58:22.826Z,61.88
2023-01-29T09:59:22.813Z,61.88
2023-01-29T10:00:22.832Z,61.88
2023-01-29T10:01:22.899Z,56.25
2023-01-29T10:02:23.089Z,61.88
2023-01-29T10:03:22.772Z,61.88
2023-01-29T10:04:22.798Z,61.88
2023-01-29T10:05:22.748Z,61.88
2023-01-29T10:06:22.744Z,61.88
2023-01-29T10:07:22.738Z,61.88
2023-01-29T10:08:22.740Z,61.88
2023-01-29T10:09:22.708Z,61.88
2023-01-29T10:10:22.710Z,67.50
2023-01-29T10:11:22.694Z,67.50
2023-01-29T10:12:22.973Z,67.50
2023-01-29T10:13:22.666Z,67.50
2023-01-29T10:14:22.670Z,67.50
2023-01-29T10:15:22.642Z,67.50
2023-01-29T10:16:22.643Z,67.50
2023-01-29T10:17:22.874Z,67.50
2023-01-29T10:18:22.621Z,67.50
2023-01-29T10:19:22.609Z,67.50
2023-01-29T10:20:22.603Z,61.88
2023-01-29T10:21:22.585Z,61.88
2023-01-29T10:22:22.584Z,61.88
2023-01-29T10:23:22.579Z,61.88
2023-01-29T10:24:22.565Z,67.50
2023-01-29T10:25:22.570Z,67.50
2023-01-29T10:26:22.591Z,67.50
2023-01-29T10:27:22.535Z,73.12
2023-01-29T10:28:22.519Z,73.12
2023-01-29T10:29:22.508Z,73.12
2023-01-29T10:30:22.510Z,78.75
2023-01-29T10:31:22.615Z,78.75
2023-01-29T10:32:22.491Z,78.75
2023-01-29T10:33:22.510Z,84.38
2023-01-29T10:34:22.468Z,84.38
2023-01-29T10:35:22.448Z,84.38
2023-01-29T10:36:22.442Z,84.38
2023-01-29T10:37:22.438Z,84.38
2023-01-29T10:38:22.418Z,78.75
2023-01-29T10:39:22.412Z,78.75
2023-01-29T10:40:22.407Z,73.12
2023-01-29T10:41:22.388Z,73.12
2023-01-29T10:42:22.398Z,73.12
2023-01-29T10:43:22.368Z,73.12
2023-01-29T10:44:22.375Z,73.12
2023-01-29T10:45:22.352Z,73.12
2023-01-29T10:46:22.345Z,73.12
2023-01-29T10:47:22.361Z,78.75
2023-01-29T10:48:22.322Z,78.75
2023-01-29T10:49:22.316Z,78.75
2023-01-29T10:50:22.334Z,84.38
2023-01-29T10:51:22.290Z,84.38
2023-01-29T10:52:22.281Z,84.38
2023-01-29T10:53:22.266Z,84.38
2023-01-29T10:54:22.257Z,84.38
2023-01-29T10:55:22.245Z,84.38
2023-01-29T10:56:23.586Z,78.75
2023-01-29T10:57:22.565Z,78.75
2023-01-29T10:58:22.223Z,73.12
2023-01-29T10:59:22.207Z,73.12
2023-01-29T11:00:22.198Z,73.12
2023-01-29T11:01:22.262Z,73.12
2023-01-29T11:02:22.218Z,67.50
2023-01-29T11:03:27.887Z,73.12
2023-01-29T11:04:22.160Z,67.50
2023-01-29T11:05:22.151Z,67.50
2023-01-29T11:06:22.141Z,61.88
2023-01-29T11:07:22.139Z,67.50
2023-01-29T11:08:22.120Z,67.50
2023-01-29T11:09:22.111Z,67.50
2023-01-29T11:10:22.110Z,67.50
2023-01-29T11:11:22.100Z,61.88
2023-01-29T11:12:22.822Z,61.88
2023-01-29T11:13:22.070Z,61.88
2023-01-29T11:14:22.055Z,61.88
2023-01-29T11:15:22.053Z,61.88
2023-01-29T11:16:22.037Z,61.88
2023-01-29T11:17:22.069Z,61.88
2023-01-29T11:18:22.014Z,61.88
2023-01-29T11:19:22.214Z,61.88
2023-01-29T11:20:21.997Z,61.88
2023-01-29T11:21:22.000Z,61.88
2023-01-29T11:22:21.992Z,61.88
2023-01-29T11:23:21.975Z,61.88
2023-01-29T11:24:21.962Z,67.50
2023-01-29T11:25:21.960Z,61.88
2023-01-29T11:26:21.952Z,61.88
2023-01-29T11:27:21.938Z,61.88
2023-01-29T11:28:21.928Z,56.25
2023-01-29T11:29:21.912Z,56.25
2023-01-29T11:30:21.912Z,61.88
2023-01-29T11:31:21.973Z,56.25
2023-01-29T11:32:21.900Z,61.88
2023-01-29T11:33:21.944Z,61.88
2023-01-29T11:34:21.868Z,61.88
2023-01-29T11:35:21.858Z,61.88
2023-01-29T11:36:21.838Z,67.50
2023-01-29T11:37:21.840Z,67.50
2023-01-29T11:38:21.815Z,67.50
2023-01-29T11:39:21.818Z,67.50
2023-01-29T11:40:21.798Z,73.12
2023-01-29T11:41:21.793Z,73.12
2023-01-29T11:42:21.797Z,73.12
2023-01-29T11:43:21.780Z,73.12
2023-01-29T11:44:21.759Z,78.75
2023-01-29T11:45:21.759Z,78.75
2023-01-29T11:46:21.742Z,78.75
2023-01-29T11:47:21.767Z,73.12
2023-01-29T11:48:21.734Z,73.12
2023-01-29T11:49:21.728Z,73.12
2023-01-29T11:50:21.715Z,73.12
2023-01-29T11:51:21.709Z,67.50
2023-01-29T11:52:21.700Z,67.50
2023-01-29T11:53:21.674Z,61.88
2023-01-29T11:54:21.668Z,67.50
2023-01-29T11:55:21.663Z,61.88
2023-01-29T11:56:21.684Z,67.50
2023-01-29T11:57:21.682Z,67.50
2023-01-29T11:58:21.645Z,67.50
2023-01-29T11:59:21.611Z,61.88
2023-01-29T12:00:21.621Z,67.50
2023-01-29T12:01:21.596Z,67.50
2023-01-29T12:02:21.593Z,67.50
2023-01-29T12:03:23.893Z,67.50
2023-01-29T12:04:21.580Z,67.50
2023-01-29T12:05:21.563Z,67.50
2023-01-29T12:06:21.547Z,67.50
2023-01-29T12:07:21.557Z,67.50
2023-01-29T12:08:21.523Z,61.88
2023-01-29T12:09:21.528Z,61.88
2023-01-29T12:10:21.509Z,61.88
2023-01-29T12:11:21.501Z,61.88
2023-01-29T12:12:21.528Z,67.50
2023-01-29T12:13:21.480Z,67.50
2023-01-29T12:14:21.493Z,67.50
2023-01-29T12:15:21.456Z,67.50
2023-01-29T12:16:21.496Z,67.50
2023-01-29T12:17:21.459Z,67.50
2023-01-29T12:18:21.464Z,67.50
2023-01-29T12:19:21.417Z,73.12
2023-01-29T12:20:21.411Z,73.12
2023-01-29T12:21:21.423Z,73.12
2023-01-29T12:22:21.383Z,73.12
2023-01-29T12:23:21.432Z,73.12
2023-01-29T12:24:21.369Z,73.12
2023-01-29T12:25:21.360Z,73.12
2023-01-29T12:26:21.387Z,73.12
2023-01-29T12:27:21.337Z,78.75
2023-01-29T12:28:21.324Z,73.12
2023-01-29T12:29:21.324Z,73.12
2023-01-29T12:30:21.305Z,73.12
2023-01-29T12:31:21.324Z,73.12
2023-01-29T12:32:21.291Z,67.50
2023-01-29T12:33:21.280Z,67.50
2023-01-29T12:34:21.262Z,67.50
2023-01-29T12:35:21.262Z,67.50
2023-01-29T12:36:21.243Z,67.50
2023-01-29T12:37:21.258Z,67.50
2023-01-29T12:38:21.220Z,67.50
2023-01-29T12:39:21.215Z,67.50
2023-01-29T12:40:21.203Z,67.50
2023-01-29T12:41:21.193Z,67.50
2023-01-29T12:42:21.187Z,67.50
2023-01-29T12:43:21.186Z,67.50
2023-01-29T12:44:21.167Z,67.50
2023-01-29T12:45:21.154Z,67.50
2023-01-29T12:46:21.165Z,67.50
2023-01-29T12:47:21.132Z,73.12
2023-01-29T12:48:21.127Z,73.12
2023-01-29T12:49:21.110Z,73.12
2023-01-29T12:50:21.103Z,67.50
2023-01-29T12:51:21.101Z,67.50
2023-01-29T12:52:21.081Z,67.50
2023-01-29T12:53:21.194Z,67.50
2023-01-29T12:54:21.060Z,67.50
2023-01-29T12:55:21.051Z,67.50
2023-01-29T12:56:21.031Z,67.50
2023-01-29T12:57:21.033Z,67.50
2023-01-29T12:58:21.023Z,67.50
2023-01-29T12:59:21.008Z,67.50
2023-01-29T13:00:20.994Z,67.50
2023-01-29T13:01:21.052Z,67.50
2023-01-29T13:02:20.974Z,67.50
2023-01-29T13:03:21.024Z,67.50
2023-01-29T13:04:20.950Z,67.50
2023-01-29T13:05:20.977Z,67.50
2023-01-29T13:06:20.945Z,61.88
2023-01-29T13:07:20.934Z,67.50